createdAt,value
2019-02-11T00:00:08.400Z,58.12
2019-02-11T00:05:09.700Z,58.11
2019-02-11T00:10:11.746Z,58.13
2019-02-11T00:15:13.141Z,58.46
2019-02-11T00:20:15.286Z,58.11
2019-02-11T00:25:16.603Z,58.62
2019-02-11T00:30:18.643Z,58.86
2019-02-11T00:35:19.960Z,58.19
2019-02-11T00:40:21.260Z,58.89
2019-02-11T00:45:22.569Z,58.78
2019-02-11T00:50:24.613Z,59.19
2019-02-11T00:55:25.917Z,59.00
2019-02-11T01:00:27.203Z,59.22
2019-02-11T01:05:28.507Z,58.56
2019-02-11T01:10:29.952Z,59.09
2019-02-11T01:15:31.244Z,58.91
2019-02-11T01:20:32.571Z,58.77
2019-02-11T01:25:33.870Z,58.98
2019-02-11T01:30:35.181Z,59.25
2019-02-11T01:35:36.472Z,59.19
2019-02-11T01:40:37.772Z,59.18
2019-02-11T01:45:39.076Z,60.42
2019-02-11T01:50:40.410Z,62.29
2019-02-11T01:55:41.713Z,61.63
2019-02-11T02:00:43.063Z,60.99
2019-02-11T02:05:44.343Z,59.72
2019-02-11T02:10:46.103Z,59.73
2019-02-11T02:15:47.409Z,59.41
2019-02-11T02:20:48.745Z,59.26
2019-02-11T02:25:50.031Z,59.54
2019-02-11T02:30:51.363Z,59.66
2019-02-11T02:35:52.707Z,60.59
2019-02-11T02:40:54.004Z,60.43
2019-02-11T02:45:55.327Z,65.04
2019-02-11T02:50:56.709Z,64.66
2019-02-11T02:55:58.049Z,64.44
2019-02-11T03:00:59.373Z,65.28
2019-02-11T03:06:00.713Z,65.04
2019-02-11T03:11:02.022Z,65.66
2019-02-11T03:16:04.083Z,68.61
2019-02-11T03:21:05.380Z,68.95
2019-02-11T03:26:06.671Z,69.24
2019-02-11T03:31:08.176Z,70.68
2019-02-11T03:36:09.819Z,68.10
2019-02-11T03:41:11.128Z,65.79
2019-02-11T03:46:13.208Z,64.91
2019-02-11T03:51:15.290Z,63.99
2019-02-11T03:56:17.447Z,63.15
2019-02-11T04:01:18.756Z,63.87
2019-02-11T04:06:20.494Z,63.15
2019-02-11T04:11:21.818Z,62.98
2019-02-11T04:16:23.172Z,62.92
2019-02-11T04:21:24.521Z,62.29
2019-02-11T04:26:25.889Z,62.31
2019-02-11T04:31:27.195Z,61.95
2019-02-11T04:36:28.835Z,61.97
2019-02-11T04:41:30.124Z,61.39
2019-02-11T04:46:31.424Z,62.38
2019-02-11T04:51:32.708Z,63.17
2019-02-11T04:56:34.448Z,63.51
2019-02-11T05:01:41.290Z,63.35
2019-02-11T05:06:48.725Z,63.07
2019-02-11T05:11:50.047Z,63.26
2019-02-11T05:16:51.389Z,62.04
2019-02-11T05:21:52.750Z,64.24
2019-02-11T05:26:54.091Z,65.27
2019-02-11T05:31:57.691Z,66.23
2019-02-11T05:37:13.710Z,64.99
2019-02-11T05:42:18.836Z,66.22
2019-02-11T05:47:20.153Z,67.61
2019-02-11T05:52:22.262Z,69.18
2019-02-11T05:57:23.564Z,71.43
2019-02-11T06:02:24.954Z,70.65
2019-02-11T06:07:27.064Z,74.00
2019-02-11T06:12:28.480Z,73.62
2019-02-11T06:17:29.817Z,72.27
2019-02-11T06:22:31.149Z,75.42
2019-02-11T06:27:32.567Z,74.90
2019-02-11T06:32:33.912Z,72.71
2019-02-11T06:37:35.238Z,72.99
2019-02-11T06:42:36.622Z,74.93
2019-02-11T06:47:37.964Z,74.60
2019-02-11T06:52:39.283Z,73.61
2019-02-11T06:57:40.674Z,74.82
2019-02-11T07:02:42.698Z,76.33
2019-02-11T07:07:44.045Z,78.25
2019-02-11T07:12:45.320Z,78.70
2019-02-11T07:17:46.609Z,78.96
2019-02-11T07:22:47.916Z,79.13
2019-02-11T07:27:49.985Z,77.92
2019-02-11T07:32:51.288Z,78.03
2019-02-11T07:37:52.577Z,77.28
2019-02-11T07:42:53.897Z,77.60
2019-02-11T07:47:55.193Z,76.27
2019-02-11T07:52:56.459Z,76.40
2019-02-11T07:57:57.769Z,77.39
2019-02-11T08:02:59.824Z,75.70
2019-02-11T08:08:01.141Z,76.24
2019-02-11T08:13:02.473Z,76.62
2019-02-11T08:18:03.786Z,76.96
2019-02-11T08:23:11.980Z,77.32
2019-02-11T08:28:06.429Z,77.84
2019-02-11T08:33:07.734Z,77.46
2019-02-11T08:38:09.448Z,77.65
2019-02-11T08:43:10.712Z,76.25
2019-02-11T08:48:12.081Z,76.25
2019-02-11T08:53:13.421Z,77.54
2019-02-11T08:58:14.751Z,75.89
2019-02-11T09:03:16.859Z,77.72
2019-02-11T09:08:18.164Z,77.28
2019-02-11T09:13:19.503Z,78.74
2019-02-11T09:18:20.881Z,79.27
2019-02-11T09:23:22.147Z,78.82
2019-02-11T09:28:23.459Z,76.17
2019-02-11T09:33:24.876Z,77.54
2019-02-11T09:38:26.201Z,77.45
2019-02-11T09:43:27.539Z,78.39
2019-02-11T09:48:28.861Z,78.25
2019-02-11T09:53:30.193Z,77.48
2019-02-11T09:58:31.743Z,75.64
2019-02-11T10:03:33.659Z,77.66
2019-02-11T10:08:35.737Z,77.24
2019-02-11T10:13:37.122Z,78.06
2019-02-11T10:18:38.431Z,76.70
2019-02-11T10:23:39.826Z,77.26
2019-02-11T10:28:41.227Z,76.82
2019-02-11T10:33:42.567Z,75.84
2019-02-11T10:38:44.278Z,75.90
2019-02-11T10:43:46.366Z,75.09
2019-02-11T10:48:48.485Z,75.38
2019-02-11T10:53:49.816Z,74.68
2019-02-11T10:58:51.177Z,74.39
2019-02-11T11:03:52.561Z,75.27
2019-02-11T11:08:53.941Z,74.95
2019-02-11T11:13:55.368Z,74.88
2019-02-11T11:18:57.407Z,75.46
2019-02-11T11:23:58.760Z,74.77
2019-02-11T11:29:00.088Z,76.37
2019-02-11T11:34:01.437Z,76.59
2019-02-11T11:39:02.788Z,76.42
2019-02-11T11:44:04.121Z,76.38
2019-02-11T11:49:05.456Z,76.29
2019-02-11T11:54:06.765Z,77.76
2019-02-11T11:59:08.835Z,76.71
2019-02-11T12:04:10.178Z,78.31
2019-02-11T12:09:11.531Z,76.92
2019-02-11T12:14:12.861Z,77.88
2019-02-11T12:19:14.238Z,78.04
2019-02-11T12:24:15.582Z,77.18
2019-02-11T12:29:16.906Z,77.28
2019-02-11T12:34:18.240Z,77.22
2019-02-11T12:39:19.591Z,76.40
2019-02-11T12:44:20.881Z,75.90
2019-02-11T12:49:22.208Z,77.47
2019-02-11T12:54:23.610Z,76.43
2019-02-11T12:59:25.017Z,75.39
2019-02-11T13:04:26.361Z,75.62
2019-02-11T13:09:27.724Z,76.50
2019-02-11T13:14:29.070Z,75.76
2019-02-11T13:19:30.391Z,76.08
2019-02-11T13:24:31.751Z,76.32
2019-02-11T13:29:33.070Z,75.46
2019-02-11T13:34:34.500Z,75.13
2019-02-11T13:39:35.902Z,74.37
2019-02-11T13:44:37.283Z,74.10
2019-02-11T13:49:38.681Z,72.96
2019-02-11T13:54:40.813Z,73.03
2019-02-11T13:59:42.186Z,72.90
2019-02-11T14:04:43.526Z,73.71
2019-02-11T14:09:44.889Z,73.19
2019-02-11T14:14:46.295Z,71.50
2019-02-11T14:19:47.624Z,71.53
2019-02-11T14:24:49.013Z,70.60
2019-02-11T14:29:50.813Z,70.58
2019-02-11T14:34:54.859Z,70.29
2019-02-11T14:39:57.089Z,69.73
2019-02-11T14:44:58.828Z,70.14
2019-02-11T14:50:00.846Z,69.94
2019-02-11T14:55:02.169Z,68.71
2019-02-11T15:00:06.335Z,69.37
2019-02-11T15:05:07.681Z,69.04
2019-02-11T15:10:09.329Z,68.52
2019-02-11T15:15:10.657Z,68.76
2019-02-11T15:20:11.989Z,68.51
2019-02-11T15:25:14.139Z,67.59
2019-02-11T15:35:16.753Z,66.28
2019-02-11T15:40:19.833Z,66.75
2019-02-11T15:45:21.180Z,64.41
2019-02-11T15:50:22.487Z,65.02
2019-02-11T15:55:23.818Z,65.57
2019-02-11T16:00:25.153Z,65.27
2019-02-11T16:05:26.480Z,65.85
2019-02-11T16:10:27.864Z,65.45
2019-02-11T16:15:29.172Z,66.17
2019-02-11T16:20:30.490Z,65.16
2019-02-11T16:25:31.815Z,65.50
2019-02-11T16:30:33.934Z,66.14
2019-02-11T16:35:35.261Z,66.62
2019-02-11T16:40:37.356Z,66.36
2019-02-11T16:45:38.691Z,66.67
2019-02-11T16:50:40.003Z,66.78
2019-02-11T16:55:41.348Z,66.52
2019-02-11T17:00:42.684Z,67.48
2019-02-11T17:05:44.024Z,66.95
2019-02-11T17:10:45.348Z,66.39
2019-02-11T17:15:46.669Z,65.70
2019-02-11T17:20:48.012Z,64.63
2019-02-11T17:25:53.171Z,65.54
2019-02-11T17:30:54.644Z,63.75
2019-02-11T17:35:59.418Z,64.71
2019-02-11T17:41:07.024Z,63.89
2019-02-11T17:46:10.169Z,64.21
2019-02-11T17:51:11.662Z,64.03
2019-02-11T17:56:12.983Z,64.77
2019-02-11T18:01:22.109Z,64.76
2019-02-11T18:06:34.749Z,66.41
2019-02-11T18:11:36.834Z,65.21
2019-02-11T18:16:38.832Z,65.53
2019-02-11T18:21:40.880Z,66.08
2019-02-11T18:26:42.840Z,65.76
2019-02-11T18:31:46.021Z,66.55
2019-02-11T18:36:48.501Z,67.45
2019-02-11T18:41:50.521Z,67.13
2019-02-11T18:47:10.163Z,67.00
2019-02-11T18:52:12.520Z,67.55
2019-02-11T18:57:14.554Z,68.01
2019-02-11T19:02:17.452Z,69.09
2019-02-11T19:07:25.330Z,69.51
2019-02-11T19:12:27.520Z,69.85
2019-02-11T19:17:29.517Z,69.04
2019-02-11T19:22:31.548Z,69.66
2019-02-11T19:27:33.473Z,70.10
2019-02-11T19:32:36.674Z,69.96
2019-02-11T19:37:42.003Z,69.85
2019-02-11T19:42:48.820Z,70.27
2019-02-11T19:47:51.399Z,69.91
2019-02-11T19:52:55.783Z,70.81
2019-02-11T19:57:57.839Z,70.34
2019-02-11T20:03:00.281Z,70.32
2019-02-11T20:08:02.389Z,71.54
2019-02-11T20:13:04.415Z,69.11
2019-02-11T20:18:07.953Z,70.74
2019-02-11T20:23:10.402Z,70.31
2019-02-11T20:28:13.948Z,71.01
2019-02-11T20:33:16.611Z,69.74
2019-02-11T20:38:18.251Z,69.11
2019-02-11T20:43:24.438Z,69.21
2019-02-11T20:48:31.112Z,69.40
2019-02-11T20:53:36.148Z,68.71
2019-02-11T20:58:41.867Z,68.97
2019-02-11T21:03:48.771Z,68.17
2019-02-11T21:08:52.943Z,69.37
2019-02-11T21:13:56.088Z,69.87
2019-02-11T21:18:57.389Z,69.39
2019-02-11T21:23:58.717Z,70.54
2019-02-11T21:29:00.066Z,70.24
2019-02-11T21:34:01.428Z,70.29
2019-02-11T21:39:02.761Z,70.73
2019-02-11T21:44:04.854Z,70.95
2019-02-11T21:49:06.209Z,69.97
2019-02-11T21:54:08.299Z,72.17
2019-02-11T21:59:09.665Z,75.09
2019-02-11T22:04:11.032Z,75.45
2019-02-11T22:09:12.408Z,74.40
2019-02-11T22:14:17.381Z,72.09
2019-02-11T22:19:19.533Z,71.78
2019-02-11T22:24:20.866Z,71.41
2019-02-11T22:29:22.168Z,71.12
2019-02-11T22:34:23.512Z,70.60
2019-02-11T22:39:24.845Z,70.43
2019-02-11T22:44:26.153Z,69.62
2019-02-11T22:49:27.442Z,69.27
2019-02-11T22:54:29.514Z,69.20
2019-02-11T22:59:30.909Z,70.78
2019-02-11T23:04:32.239Z,70.15
2019-02-11T23:09:33.605Z,71.27
2019-02-11T23:14:35.094Z,69.24
2019-02-11T23:19:37.200Z,69.60
2019-02-11T23:24:38.660Z,70.75
2019-02-11T23:29:39.966Z,72.00
2019-02-11T23:34:41.315Z,72.24
2019-02-11T23:39:42.677Z,70.93
2019-02-11T23:44:44.020Z,71.38
2019-02-11T23:49:45.342Z,70.83
2019-02-11T23:54:46.692Z,69.69
2019-02-11T23:59:48.096Z,69.54
